Kipton, Ohio
Current Conditions -  °F | °C
As of 11:53 AM on Monday 22 Dec 2014 (Local Time) from KLPR Reporting Station
Clear Clear  
Wind Chill: 32°   Ceiling: Unl
Heat Index: 38°   Visibility: 8mi
Dew Point: 30°   Wind: 8mph
Humidity: 73%   Direction: 190°S
Pressure: 30.04"   Gusts: NA
Location:  41.27°N, 82.3°W
Report Text: KLPR 221653Z AUTO 19007KT 8SM CLR 03/M01 A3004 RMK AO2 SLP182 T00331011 TSNO
Loading
Personal Weather Stations






























Interactive Weather Map New forecast layout! Learn more

10-Day Weather Forecast

Advertisements
Track Severe Weather on mobile